Terminal Aerodrome Forecast
Issued by NWS Sioux Falls, SD

Home | Current Version | Previous Version | Text Only | Print | Product List | Glossary Off
Versions: 1 2 3 4 5 6 7 8 9 10 11 12 13 14 15 16 17 18 19 20 21 22 23 24 25 26 27 28

326
FTUS43 KFSD 201722
TAFSUX
TAF
KSUX 201722Z 2018/2118 32016G22KT P6SM SCT020
     FM210100 34012KT P6SM FEW250
     FM210400 33009KT P6SM FEW250
     FM211200 32005KT P6SM SKC=

USA.gov is the U.S. government's official web portal to all federal, state and local government web resources and services.